createdAt,value
2022-08-19T00:00:00.334Z,25.4
2022-08-19T00:01:00.291Z,25.5
2022-08-19T00:02:00.524Z,25.4
2022-08-19T00:03:00.305Z,25.4
2022-08-19T00:04:00.309Z,25.4
2022-08-19T00:05:00.390Z,25.4
2022-08-19T00:06:00.602Z,25.4
2022-08-19T00:07:00.291Z,25.3
2022-08-19T00:08:00.309Z,25.3
2022-08-19T00:09:00.305Z,25.3
2022-08-19T00:10:00.299Z,25.3
2022-08-19T00:11:00.385Z,25.3
2022-08-19T00:12:00.330Z,25.3
2022-08-19T00:13:00.303Z,25.3
2022-08-19T00:14:00.334Z,25.4
2022-08-19T00:15:00.277Z,25.3
2022-08-19T00:16:00.291Z,25.3
2022-08-19T00:17:00.508Z,25.3
2022-08-19T00:18:00.275Z,25.2
2022-08-19T00:19:00.341Z,25.1
2022-08-19T00:20:00.408Z,25.1
2022-08-19T00:21:00.487Z,25.1
2022-08-19T00:22:00.306Z,25.0
2022-08-19T00:23:00.359Z,25.0
2022-08-19T00:24:00.349Z,25.0
2022-08-19T00:25:00.358Z,25.1
2022-08-19T00:26:00.272Z,25.1
2022-08-19T00:27:24.895Z,25.1
2022-08-19T00:28:00.414Z,25.1
2022-08-19T00:29:00.277Z,25.1
2022-08-19T00:30:00.285Z,25.1
2022-08-19T00:31:00.292Z,25.1
2022-08-19T00:32:00.286Z,25.1
2022-08-19T00:33:00.433Z,25.0
2022-08-19T00:34:00.281Z,25.1
2022-08-19T00:35:00.337Z,25.1
2022-08-19T00:36:00.298Z,25.1
2022-08-19T00:37:00.312Z,25.1
2022-08-19T00:38:00.313Z,25.1
2022-08-19T00:39:00.375Z,25.1
2022-08-19T00:40:00.483Z,25.1
2022-08-19T00:41:00.305Z,25.0
2022-08-19T00:42:00.300Z,25.0
2022-08-19T00:43:00.369Z,25.0
2022-08-19T00:44:00.374Z,24.9
2022-08-19T00:45:00.327Z,24.9
2022-08-19T00:46:00.324Z,25.0
2022-08-19T00:47:01.126Z,25.0
2022-08-19T00:48:00.310Z,25.1
2022-08-19T00:49:00.319Z,25.1
2022-08-19T00:50:00.444Z,25.1
2022-08-19T00:51:00.330Z,25.0
2022-08-19T00:52:00.300Z,25.0
2022-08-19T00:53:00.302Z,25.0
2022-08-19T00:54:00.333Z,25.0
2022-08-19T00:55:00.362Z,25.1
2022-08-19T00:56:00.483Z,25.1
2022-08-19T00:57:00.369Z,25.2
2022-08-19T00:58:00.365Z,25.2
2022-08-19T00:59:00.419Z,25.2
2022-08-19T01:00:02.311Z,25.2
2022-08-19T01:01:00.331Z,25.2
2022-08-19T01:02:00.555Z,25.2
2022-08-19T01:03:00.298Z,25.2
2022-08-19T01:04:00.297Z,25.2
2022-08-19T01:05:00.279Z,25.2
2022-08-19T01:06:00.288Z,25.2
2022-08-19T01:07:00.467Z,25.2
2022-08-19T01:08:00.470Z,25.2
2022-08-19T01:09:00.366Z,25.2
2022-08-19T01:10:00.345Z,25.2
2022-08-19T01:11:00.347Z,25.1
2022-08-19T01:12:00.308Z,25.1
2022-08-19T01:13:00.329Z,25.0
2022-08-19T01:14:00.474Z,25.0
2022-08-19T01:15:00.424Z,25.0
2022-08-19T01:16:00.299Z,25.0
2022-08-19T01:17:00.373Z,25.0
2022-08-19T01:18:00.331Z,24.9
2022-08-19T01:19:00.353Z,24.9
2022-08-19T01:20:00.399Z,24.9
2022-08-19T01:21:00.283Z,24.8
2022-08-19T01:22:00.279Z,24.8
2022-08-19T01:23:00.290Z,24.8
2022-08-19T01:24:00.297Z,24.8
2022-08-19T01:25:00.339Z,24.8
2022-08-19T01:26:00.410Z,24.8
2022-08-19T01:27:00.309Z,24.8
2022-08-19T01:28:01.672Z,24.9
2022-08-19T01:29:01.011Z,24.9
2022-08-19T01:30:00.275Z,24.9
2022-08-19T01:31:00.283Z,24.8
2022-08-19T01:32:00.392Z,24.8
2022-08-19T01:33:00.309Z,24.7
2022-08-19T01:34:00.291Z,24.7
2022-08-19T01:35:00.299Z,24.7
2022-08-19T01:36:00.311Z,24.6
2022-08-19T01:37:00.408Z,24.6
2022-08-19T01:38:00.280Z,24.6
2022-08-19T01:39:00.306Z,24.6
2022-08-19T01:40:00.404Z,24.6
2022-08-19T01:41:00.326Z,24.6
2022-08-19T01:42:00.349Z,24.6
2022-08-19T01:43:00.421Z,24.6
2022-08-19T01:44:13.664Z,24.6
2022-08-19T01:45:00.365Z,24.6
2022-08-19T01:46:00.381Z,24.6
2022-08-19T01:47:00.442Z,24.7
2022-08-19T01:48:02.157Z,24.7
2022-08-19T01:49:00.337Z,24.7
2022-08-19T01:50:00.273Z,24.7
2022-08-19T01:51:00.296Z,24.7
2022-08-19T01:52:00.337Z,24.7
2022-08-19T01:53:06.369Z,24.7
2022-08-19T01:54:00.301Z,24.7
2022-08-19T01:55:00.296Z,24.7
2022-08-19T01:56:00.298Z,24.7
2022-08-19T01:57:00.467Z,24.7
2022-08-19T01:58:00.307Z,24.7
2022-08-19T01:59:00.288Z,24.6
2022-08-19T02:00:00.352Z,24.6
2022-08-19T02:01:00.429Z,24.6
2022-08-19T02:02:00.306Z,24.7
2022-08-19T02:03:00.399Z,24.6
2022-08-19T02:04:00.309Z,24.6
2022-08-19T02:05:00.285Z,24.6
2022-08-19T02:06:00.306Z,24.6
2022-08-19T02:07:00.314Z,24.6
2022-08-19T02:08:00.294Z,24.5
2022-08-19T02:09:00.391Z,24.5
2022-08-19T02:10:00.327Z,24.5
2022-08-19T02:11:00.311Z,24.5
2022-08-19T02:12:00.314Z,24.5
2022-08-19T02:13:00.349Z,24.5
2022-08-19T02:14:00.293Z,24.5
2022-08-19T02:15:00.376Z,24.5
2022-08-19T02:16:00.380Z,24.5
2022-08-19T02:17:00.297Z,24.5
2022-08-19T02:18:00.279Z,24.7
2022-08-19T02:19:00.314Z,24.7
2022-08-19T02:20:00.319Z,24.7
2022-08-19T02:21:00.372Z,24.7
2022-08-19T02:22:00.289Z,24.7
2022-08-19T02:23:00.382Z,24.7
2022-08-19T02:24:00.352Z,24.7
2022-08-19T02:25:00.292Z,24.7
2022-08-19T02:26:00.317Z,24.8
2022-08-19T02:27:00.436Z,24.8
2022-08-19T02:28:00.288Z,24.9
2022-08-19T02:29:00.397Z,24.9
2022-08-19T02:30:00.313Z,24.9
2022-08-19T02:31:00.463Z,24.8
2022-08-19T02:32:00.314Z,24.8
2022-08-19T02:33:00.296Z,24.8
2022-08-19T02:34:00.301Z,24.8
2022-08-19T02:35:00.295Z,24.8
2022-08-19T02:36:00.300Z,24.8
2022-08-19T02:37:03.652Z,24.8
2022-08-19T02:38:00.410Z,24.8
2022-08-19T02:39:00.292Z,24.9
2022-08-19T02:40:00.405Z,24.9
2022-08-19T02:41:00.367Z,25.0
2022-08-19T02:42:00.302Z,25.0
2022-08-19T02:43:00.280Z,25.0
2022-08-19T02:44:26.477Z,25.0
2022-08-19T02:45:00.310Z,25.0
2022-08-19T02:46:00.388Z,25.0
2022-08-19T02:47:00.309Z,24.9
2022-08-19T02:48:00.301Z,24.9
2022-08-19T02:49:00.315Z,24.9
2022-08-19T02:50:00.301Z,24.9
2022-08-19T02:51:00.405Z,25.0
2022-08-19T02:52:00.305Z,25.0
2022-08-19T02:53:00.289Z,25.0
2022-08-19T02:54:00.297Z,25.1
2022-08-19T02:55:00.307Z,25.1
2022-08-19T02:56:00.309Z,25.1
2022-08-19T02:57:00.497Z,25.2
2022-08-19T02:58:00.376Z,25.2
2022-08-19T02:59:00.313Z,25.3
2022-08-19T03:00:00.333Z,25.4
2022-08-19T03:01:00.419Z,25.4
2022-08-19T03:02:00.323Z,25.5
2022-08-19T03:03:00.368Z,25.5
2022-08-19T03:04:00.341Z,25.6
2022-08-19T03:05:00.459Z,25.6
2022-08-19T03:06:00.331Z,25.6
2022-08-19T03:07:10.619Z,25.7
2022-08-19T03:08:00.311Z,25.7
2022-08-19T03:09:00.303Z,25.7
2022-08-19T03:10:00.309Z,25.7
2022-08-19T03:11:00.312Z,25.7
2022-08-19T03:12:00.303Z,25.7
2022-08-19T03:13:00.391Z,25.7
2022-08-19T03:14:00.297Z,25.7
2022-08-19T03:15:00.344Z,25.8
2022-08-19T03:16:00.400Z,25.9
2022-08-19T03:17:00.373Z,25.9
2022-08-19T03:18:00.311Z,26.0
2022-08-19T03:19:00.391Z,26.1
2022-08-19T03:20:00.322Z,26.2
2022-08-19T03:21:00.312Z,26.3
2022-08-19T03:22:00.311Z,26.4
2022-08-19T03:23:00.294Z,26.5
2022-08-19T03:24:00.377Z,26.5
2022-08-19T03:25:00.369Z,26.5
2022-08-19T03:26:15.972Z,26.5
2022-08-19T03:27:00.291Z,26.6
2022-08-19T03:28:00.292Z,26.6
2022-08-19T03:29:00.373Z,26.6
2022-08-19T03:30:00.355Z,26.6
2022-08-19T03:31:00.376Z,26.5
2022-08-19T03:32:00.360Z,26.5
2022-08-19T03:33:00.315Z,26.4
2022-08-19T03:34:00.308Z,26.4
2022-08-19T03:35:00.306Z,26.4
2022-08-19T03:36:00.290Z,26.4
2022-08-19T03:37:00.391Z,26.4
2022-08-19T03:38:00.370Z,26.4
2022-08-19T03:39:00.295Z,26.4
2022-08-19T03:40:00.536Z,26.5
2022-08-19T03:41:00.279Z,26.5
2022-08-19T03:42:29.261Z,26.5
2022-08-19T03:43:00.482Z,26.6
2022-08-19T03:44:00.399Z,26.6
2022-08-19T03:45:00.280Z,26.7
2022-08-19T03:46:00.279Z,26.8
2022-08-19T03:47:00.324Z,26.8
2022-08-19T03:48:00.279Z,26.9
2022-08-19T03:49:00.307Z,26.9
2022-08-19T03:50:00.381Z,26.9
2022-08-19T03:51:00.374Z,26.9
2022-08-19T03:52:00.422Z,26.9
2022-08-19T03:53:00.398Z,26.9
2022-08-19T03:54:00.304Z,26.9
2022-08-19T03:55:00.381Z,26.9
2022-08-19T03:56:00.369Z,26.9
2022-08-19T03:57:00.290Z,26.9
2022-08-19T03:58:00.299Z,26.9
2022-08-19T03:59:00.469Z,27.0
2022-08-19T04:00:12.548Z,27.0
2022-08-19T04:01:00.414Z,27.0
2022-08-19T04:02:00.279Z,27.1
2022-08-19T04:03:00.888Z,27.2
2022-08-19T04:04:00.306Z,27.2
2022-08-19T04:05:00.294Z,27.3
2022-08-19T04:06:00.302Z,27.3
2022-08-19T04:07:00.425Z,27.2
2022-08-19T04:08:00.648Z,27.2
2022-08-19T04:09:00.316Z,27.2
2022-08-19T04:10:00.386Z,27.2
2022-08-19T04:11:00.395Z,27.2
2022-08-19T04:12:00.319Z,27.2
2022-08-19T04:13:00.383Z,27.2
2022-08-19T04:14:00.405Z,27.2
2022-08-19T04:15:00.289Z,27.2
2022-08-19T04:16:00.443Z,27.3
2022-08-19T04:17:00.346Z,27.3
2022-08-19T04:18:00.371Z,27.4
2022-08-19T04:19:00.483Z,27.5
2022-08-19T04:20:00.300Z,27.6
2022-08-19T04:21:00.314Z,27.8
2022-08-19T04:22:00.303Z,28.0
2022-08-19T04:23:00.309Z,28.0
2022-08-19T04:24:00.295Z,28.1
2022-08-19T04:25:00.381Z,28.2
2022-08-19T04:26:00.303Z,28.3
2022-08-19T04:27:00.325Z,28.5
2022-08-19T04:28:00.738Z,28.6
2022-08-19T04:29:00.279Z,28.7
2022-08-19T04:30:00.382Z,28.8
2022-08-19T04:31:00.298Z,28.9
2022-08-19T04:32:00.319Z,29.0
2022-08-19T04:33:00.311Z,29.1
2022-08-19T04:34:00.289Z,29.3
2022-08-19T04:35:02.330Z,29.4
2022-08-19T04:36:00.361Z,29.5
2022-08-19T04:37:00.311Z,29.7
2022-08-19T04:38:00.296Z,29.9
2022-08-19T04:39:00.299Z,30.0
2022-08-19T04:40:02.656Z,30.1
2022-08-19T04:41:00.352Z,30.2
2022-08-19T04:42:00.398Z,30.3
2022-08-19T04:43:00.460Z,30.4
2022-08-19T04:44:04.280Z,30.4
2022-08-19T04:45:00.297Z,30.5
2022-08-19T04:46:01.099Z,30.5
2022-08-19T04:47:00.342Z,30.4
2022-08-19T04:48:26.336Z,30.4
2022-08-19T04:49:00.298Z,30.3
2022-08-19T04:50:00.360Z,30.4
2022-08-19T04:51:00.387Z,30.4
2022-08-19T04:52:00.422Z,30.5
2022-08-19T04:53:00.296Z,30.5
2022-08-19T04:54:00.366Z,30.7
2022-08-19T04:55:00.293Z,31.2
2022-08-19T04:56:00.299Z,32.1
2022-08-19T04:57:00.293Z,32.8
2022-08-19T04:58:00.402Z,33.5
2022-08-19T04:59:00.283Z,35.1
2022-08-19T05:00:00.469Z,35.5
2022-08-19T05:01:00.355Z,35.7
2022-08-19T05:02:00.472Z,36.6
2022-08-19T05:03:00.532Z,37.3
2022-08-19T05:04:00.297Z,36.6
2022-08-19T05:05:00.549Z,36.3
2022-08-19T05:06:00.390Z,36.0
2022-08-19T05:07:01.100Z,36.1
2022-08-19T05:08:00.331Z,35.1
2022-08-19T05:09:00.435Z,34.4
2022-08-19T05:10:00.355Z,33.9
2022-08-19T05:11:00.280Z,33.6
2022-08-19T05:12:00.426Z,33.6
2022-08-19T05:13:00.448Z,33.0
2022-08-19T05:14:00.447Z,32.9
2022-08-19T05:15:00.442Z,32.7
2022-08-19T05:16:00.366Z,32.5
2022-08-19T05:17:25.611Z,33.1
2022-08-19T05:18:00.329Z,34.0
2022-08-19T05:19:00.584Z,32.9
2022-08-19T05:20:00.333Z,34.4
2022-08-19T05:21:00.297Z,37.0
2022-08-19T05:22:00.279Z,38.0
2022-08-19T05:23:00.310Z,38.5
2022-08-19T05:24:00.373Z,38.4
2022-08-19T05:25:12.080Z,38.5
2022-08-19T05:26:00.300Z,38.4
2022-08-19T05:27:00.290Z,38.4
2022-08-19T05:28:00.372Z,38.8
2022-08-19T05:29:00.308Z,38.7
2022-08-19T05:30:00.302Z,38.5
2022-08-19T05:31:00.658Z,38.1
2022-08-19T05:32:00.294Z,38.0
2022-08-19T05:33:00.311Z,38.2
2022-08-19T05:34:00.372Z,38.1
2022-08-19T05:35:00.321Z,36.9
2022-08-19T05:36:00.318Z,35.1
2022-08-19T05:37:00.386Z,34.3
2022-08-19T05:38:00.299Z,33.6
2022-08-19T05:39:00.383Z,32.9
2022-08-19T05:40:00.503Z,32.4
2022-08-19T05:41:00.337Z,32.1
2022-08-19T05:42:00.331Z,31.9
2022-08-19T05:43:00.414Z,31.7
2022-08-19T05:44:00.293Z,31.5
2022-08-19T05:45:00.295Z,31.4
2022-08-19T05:46:00.313Z,31.3
2022-08-19T05:47:00.309Z,31.5
2022-08-19T05:48:00.312Z,31.4
2022-08-19T05:49:00.524Z,31.6
2022-08-19T05:50:00.318Z,32.1
2022-08-19T05:51:00.349Z,32.5
2022-08-19T05:52:00.364Z,33.0
2022-08-19T05:53:00.395Z,32.6
2022-08-19T05:54:00.346Z,32.1
2022-08-19T05:55:00.392Z,31.9
2022-08-19T05:56:00.302Z,31.7
2022-08-19T05:57:00.303Z,31.6
2022-08-19T05:58:00.417Z,31.8
2022-08-19T05:59:00.402Z,32.2
2022-08-19T06:00:00.386Z,33.1
2022-08-19T06:01:00.515Z,33.7
2022-08-19T06:02:00.301Z,34.0
2022-08-19T06:03:00.322Z,34.1
2022-08-19T06:04:00.309Z,34.0
2022-08-19T06:05:00.303Z,33.4
2022-08-19T06:06:00.312Z,32.8
2022-08-19T06:07:00.390Z,32.4
2022-08-19T06:08:00.295Z,32.2
2022-08-19T06:09:00.310Z,31.8
2022-08-19T06:10:01.392Z,31.5
2022-08-19T06:11:00.308Z,31.3
2022-08-19T06:12:00.299Z,31.1
2022-08-19T06:13:00.394Z,30.9
2022-08-19T06:14:00.557Z,30.7
2022-08-19T06:15:00.825Z,30.6
2022-08-19T06:16:00.283Z,30.5
2022-08-19T06:17:03.685Z,30.4
2022-08-19T06:18:00.308Z,30.4
2022-08-19T06:19:00.397Z,30.4
2022-08-19T06:20:00.612Z,30.4
2022-08-19T06:21:00.309Z,30.5
2022-08-19T06:22:00.310Z,30.6
2022-08-19T06:23:00.301Z,30.9
2022-08-19T06:24:00.334Z,31.5
2022-08-19T06:25:00.414Z,31.8
2022-08-19T06:26:00.403Z,31.6
2022-08-19T06:27:01.446Z,31.5
2022-08-19T06:28:15.443Z,31.4
2022-08-19T06:29:00.344Z,31.2
2022-08-19T06:30:00.378Z,31.1
2022-08-19T06:31:00.401Z,31.0
2022-08-19T06:32:00.347Z,30.8
2022-08-19T06:33:00.360Z,30.5
2022-08-19T06:34:00.280Z,30.4
2022-08-19T06:35:00.315Z,30.4
2022-08-19T06:36:00.445Z,30.6
2022-08-19T06:37:00.317Z,30.9
2022-08-19T06:38:00.304Z,31.3
2022-08-19T06:39:00.341Z,31.9
2022-08-19T06:40:00.439Z,33.2
2022-08-19T06:41:00.291Z,33.6
2022-08-19T06:42:00.391Z,35.5
2022-08-19T06:43:00.820Z,36.0
2022-08-19T06:44:00.295Z,35.4
2022-08-19T06:45:00.331Z,34.5
2022-08-19T06:46:00.301Z,34.0
2022-08-19T06:47:00.299Z,33.8
2022-08-19T06:48:00.394Z,33.7
2022-08-19T06:49:00.283Z,33.6
2022-08-19T06:50:01.260Z,33.6
2022-08-19T06:51:00.295Z,33.8
2022-08-19T06:52:00.309Z,33.7
2022-08-19T06:53:04.353Z,33.7
2022-08-19T06:54:00.470Z,33.7
2022-08-19T06:55:00.340Z,33.5
2022-08-19T06:56:00.308Z,33.5
2022-08-19T06:57:00.350Z,33.3
2022-08-19T06:58:00.486Z,33.1
2022-08-19T06:59:00.388Z,32.7
2022-08-19T07:00:00.400Z,32.4
2022-08-19T07:01:00.321Z,32.0
2022-08-19T07:02:00.301Z,31.7
2022-08-19T07:03:04.501Z,31.4
2022-08-19T07:04:00.385Z,31.2
2022-08-19T07:05:00.355Z,31.0
2022-08-19T07:06:00.307Z,30.9
2022-08-19T07:07:00.379Z,30.8
2022-08-19T07:08:04.719Z,30.6
2022-08-19T07:09:00.414Z,30.6
2022-08-19T07:10:02.040Z,30.5
2022-08-19T07:11:00.297Z,30.4
2022-08-19T07:12:00.422Z,30.3
2022-08-19T07:13:00.414Z,30.3
2022-08-19T07:14:00.280Z,30.3
2022-08-19T07:15:00.292Z,30.3
2022-08-19T07:16:00.694Z,30.4
2022-08-19T07:17:00.297Z,30.5
2022-08-19T07:18:00.390Z,30.5
2022-08-19T07:19:00.302Z,30.6
2022-08-19T07:20:05.644Z,30.7
2022-08-19T07:21:00.286Z,30.8
2022-08-19T07:22:00.294Z,31.0
2022-08-19T07:23:00.286Z,31.4
2022-08-19T07:24:02.928Z,31.9
2022-08-19T07:25:00.318Z,33.6
2022-08-19T07:26:00.329Z,34.9
2022-08-19T07:27:00.314Z,36.4
2022-08-19T07:28:01.645Z,36.0
2022-08-19T07:29:00.372Z,34.1
2022-08-19T07:30:00.461Z,33.3
2022-08-19T07:31:00.359Z,33.8
2022-08-19T07:32:00.301Z,34.5
2022-08-19T07:33:00.399Z,34.7
2022-08-19T07:34:00.395Z,35.9
2022-08-19T07:35:00.422Z,37.3
2022-08-19T07:36:00.450Z,36.9
2022-08-19T07:37:00.356Z,38.0
2022-08-19T07:38:00.318Z,40.2
2022-08-19T07:39:00.387Z,39.6
2022-08-19T07:40:00.522Z,38.4
2022-08-19T07:41:00.338Z,36.9
2022-08-19T07:42:00.379Z,36.0
2022-08-19T07:43:00.314Z,35.5
2022-08-19T07:44:00.323Z,35.0
2022-08-19T07:45:00.660Z,34.6
2022-08-19T07:46:00.552Z,34.3
2022-08-19T07:47:00.357Z,34.1
2022-08-19T07:48:00.780Z,34.0
2022-08-19T07:49:00.445Z,33.9
2022-08-19T07:50:00.492Z,33.9
2022-08-19T07:51:00.514Z,33.8
2022-08-19T07:52:00.591Z,33.6
2022-08-19T07:53:00.438Z,33.4
2022-08-19T07:54:00.311Z,33.2
2022-08-19T07:55:00.348Z,32.9
2022-08-19T07:56:00.295Z,32.8
2022-08-19T07:57:00.278Z,32.7
2022-08-19T07:58:00.304Z,32.7
2022-08-19T07:59:00.657Z,32.9
2022-08-19T08:00:00.357Z,33.0
2022-08-19T08:01:00.283Z,33.1
2022-08-19T08:02:00.355Z,33.5
2022-08-19T08:03:00.322Z,34.4
2022-08-19T08:04:00.300Z,36.4
2022-08-19T08:05:00.387Z,36.8
2022-08-19T08:06:00.298Z,35.4
2022-08-19T08:07:00.405Z,35.0
2022-08-19T08:08:00.310Z,34.7
2022-08-19T08:09:00.286Z,34.4
2022-08-19T08:10:00.710Z,34.3
2022-08-19T08:11:00.412Z,34.3
2022-08-19T08:12:05.052Z,34.3
2022-08-19T08:13:09.278Z,35.4
2022-08-19T08:14:04.548Z,36.6
2022-08-19T08:15:00.339Z,35.5
2022-08-19T08:16:00.371Z,35.2
2022-08-19T08:17:00.404Z,35.1
2022-08-19T08:18:00.352Z,35.4
2022-08-19T08:19:00.406Z,38.9
2022-08-19T08:20:00.316Z,39.7
2022-08-19T08:21:00.293Z,39.0
2022-08-19T08:22:00.414Z,38.4
2022-08-19T08:23:00.392Z,37.7
2022-08-19T08:25:00.306Z,37.9
2022-08-19T08:26:00.307Z,37.2
2022-08-19T08:27:00.312Z,37.0
2022-08-19T08:28:00.318Z,36.7
2022-08-19T08:29:00.382Z,38.0
2022-08-19T08:30:00.290Z,39.5
2022-08-19T08:31:00.316Z,40.4
2022-08-19T08:32:00.449Z,40.8
2022-08-19T08:33:00.300Z,40.8
2022-08-19T08:34:00.382Z,40.5
2022-08-19T08:35:00.369Z,41.1
2022-08-19T08:36:00.290Z,42.0
2022-08-19T08:37:00.654Z,42.3
2022-08-19T08:38:00.396Z,42.5
2022-08-19T08:39:00.346Z,42.7
2022-08-19T08:40:00.474Z,42.9
2022-08-19T08:41:00.285Z,43.1
2022-08-19T08:42:00.285Z,43.0
2022-08-19T08:44:00.314Z,43.0
2022-08-19T08:45:00.577Z,43.0
2022-08-19T08:46:00.291Z,42.9
2022-08-19T08:47:00.316Z,42.8
2022-08-19T08:48:00.403Z,42.5
2022-08-19T08:49:00.316Z,42.1
2022-08-19T08:50:00.336Z,41.9
2022-08-19T08:51:00.342Z,41.9
2022-08-19T08:52:00.638Z,42.0
2022-08-19T08:53:00.395Z,42.0
2022-08-19T08:54:00.462Z,42.0
2022-08-19T08:55:00.294Z,41.8
2022-08-19T08:56:00.364Z,41.7
2022-08-19T08:57:00.294Z,41.7
2022-08-19T08:58:00.314Z,41.6
2022-08-19T08:59:00.303Z,41.7
2022-08-19T09:00:00.514Z,41.9
2022-08-19T09:01:00.293Z,42.0
2022-08-19T09:02:00.444Z,41.9
2022-08-19T09:03:00.383Z,41.3
2022-08-19T09:04:03.101Z,41.1
2022-08-19T09:05:00.427Z,40.7
2022-08-19T09:06:00.317Z,40.1
2022-08-19T09:07:00.436Z,39.2
2022-08-19T09:08:00.380Z,38.8
2022-08-19T09:09:00.302Z,38.7
2022-08-19T09:10:00.310Z,38.4
2022-08-19T09:11:00.307Z,37.9
2022-08-19T09:12:00.289Z,37.6
2022-08-19T09:13:00.312Z,37.1
2022-08-19T09:14:00.399Z,36.6
2022-08-19T09:15:00.309Z,36.3
2022-08-19T09:16:00.297Z,36.2
2022-08-19T09:17:00.304Z,36.1
2022-08-19T09:18:00.296Z,36.1
2022-08-19T09:19:00.279Z,36.0
2022-08-19T09:20:00.464Z,36.1
2022-08-19T09:21:00.316Z,36.3
2022-08-19T09:22:00.361Z,36.5
2022-08-19T09:23:00.326Z,36.4
2022-08-19T09:24:00.333Z,36.5
2022-08-19T09:25:00.391Z,36.4
2022-08-19T09:26:00.372Z,36.3
2022-08-19T09:27:00.299Z,36.1
2022-08-19T09:28:02.538Z,36.1
2022-08-19T09:29:00.295Z,36.2
2022-08-19T09:30:00.303Z,36.1
2022-08-19T09:31:00.380Z,36.2
2022-08-19T09:32:00.319Z,36.3
2022-08-19T09:33:00.312Z,36.5
2022-08-19T09:34:00.310Z,36.5
2022-08-19T09:35:00.379Z,36.4
2022-08-19T09:36:00.332Z,36.4
2022-08-19T09:37:00.539Z,36.4
2022-08-19T09:38:00.662Z,36.4
2022-08-19T09:39:00.315Z,36.4
2022-08-19T09:40:00.429Z,36.4
2022-08-19T09:41:00.447Z,36.4
2022-08-19T09:42:00.383Z,36.5
2022-08-19T09:43:00.445Z,36.6
2022-08-19T09:44:00.295Z,36.7
2022-08-19T09:45:00.583Z,36.7
2022-08-19T09:46:00.575Z,36.7
2022-08-19T09:47:00.338Z,36.4
2022-08-19T09:48:00.348Z,36.0
2022-08-19T09:49:06.079Z,35.8
2022-08-19T09:50:00.426Z,35.7
2022-08-19T09:51:00.301Z,35.6
2022-08-19T09:52:00.499Z,35.7
2022-08-19T09:53:00.451Z,35.8
2022-08-19T09:54:00.341Z,35.9
2022-08-19T09:55:00.566Z,36.0
2022-08-19T09:56:00.306Z,36.0
2022-08-19T09:57:00.575Z,35.8
2022-08-19T09:58:00.347Z,35.7
2022-08-19T09:59:00.499Z,35.7
2022-08-19T10:00:00.349Z,35.8
2022-08-19T10:01:00.381Z,36.0
2022-08-19T10:02:03.636Z,36.1
2022-08-19T10:03:00.922Z,36.2
2022-08-19T10:04:00.297Z,36.2
2022-08-19T10:05:00.765Z,36.3
2022-08-19T10:06:00.333Z,36.3
2022-08-19T10:07:00.354Z,36.3
2022-08-19T10:08:00.327Z,36.3
2022-08-19T10:09:00.364Z,36.4
2022-08-19T10:10:00.389Z,36.6
2022-08-19T10:11:00.295Z,36.6
2022-08-19T10:12:00.406Z,36.7
2022-08-19T10:13:00.309Z,36.7
2022-08-19T10:14:00.273Z,36.8
2022-08-19T10:15:00.289Z,36.8
2022-08-19T10:16:00.395Z,36.7
2022-08-19T10:17:00.390Z,36.6
2022-08-19T10:18:00.284Z,36.5
2022-08-19T10:19:00.316Z,36.3
2022-08-19T10:20:00.329Z,36.3
2022-08-19T10:21:00.289Z,36.4
2022-08-19T10:22:00.693Z,36.5
2022-08-19T10:23:00.297Z,36.5
2022-08-19T10:24:00.343Z,36.5
2022-08-19T10:25:00.299Z,36.4
2022-08-19T10:26:00.469Z,36.4
2022-08-19T10:27:00.448Z,36.3
2022-08-19T10:28:00.397Z,36.2
2022-08-19T10:29:00.285Z,36.2
2022-08-19T10:30:00.648Z,36.3
2022-08-19T10:31:00.308Z,36.3
2022-08-19T10:32:02.917Z,36.4
2022-08-19T10:33:00.318Z,36.6
2022-08-19T10:34:00.380Z,36.7
2022-08-19T10:35:00.305Z,36.8
2022-08-19T10:36:00.302Z,36.9
2022-08-19T10:37:00.910Z,37.0
2022-08-19T10:38:01.939Z,37.1
2022-08-19T10:39:00.304Z,37.2
2022-08-19T10:40:00.594Z,37.1
2022-08-19T10:41:00.280Z,37.0
2022-08-19T10:42:00.513Z,36.9
2022-08-19T10:43:00.300Z,36.9
2022-08-19T10:44:03.974Z,37.0
2022-08-19T10:45:00.355Z,37.1
2022-08-19T10:46:00.374Z,37.2
2022-08-19T10:47:00.340Z,37.0
2022-08-19T10:48:00.403Z,37.0
2022-08-19T10:49:00.315Z,36.8
2022-08-19T10:50:00.391Z,36.7
2022-08-19T10:51:00.352Z,36.5
2022-08-19T10:52:00.537Z,36.5
2022-08-19T10:53:00.369Z,36.6
2022-08-19T10:54:00.379Z,36.6
2022-08-19T10:55:05.087Z,36.7
2022-08-19T10:56:00.336Z,36.7
2022-08-19T10:57:00.430Z,36.6
2022-08-19T10:58:02.656Z,36.7
2022-08-19T10:59:00.278Z,36.8
2022-08-19T11:00:00.300Z,36.9
2022-08-19T11:01:00.394Z,37.0
2022-08-19T11:02:00.284Z,37.1
2022-08-19T11:03:00.303Z,37.1
2022-08-19T11:04:00.406Z,37.2
2022-08-19T11:05:04.840Z,37.2
2022-08-19T11:06:00.288Z,37.2
2022-08-19T11:07:00.284Z,37.2
2022-08-19T11:08:00.279Z,37.1
2022-08-19T11:09:00.310Z,37.1
2022-08-19T11:10:00.383Z,37.2
2022-08-19T11:11:00.316Z,37.2
2022-08-19T11:12:00.399Z,37.2
2022-08-19T11:13:00.355Z,37.3
2022-08-19T11:14:00.314Z,37.2
2022-08-19T11:15:00.298Z,37.2
2022-08-19T11:16:05.112Z,37.2
2022-08-19T11:17:00.367Z,37.2
2022-08-19T11:18:00.341Z,37.2
2022-08-19T11:19:00.340Z,37.3
2022-08-19T11:20:00.294Z,37.3
2022-08-19T11:21:00.288Z,37.4
2022-08-19T11:22:00.462Z,37.4
2022-08-19T11:23:00.381Z,37.4
2022-08-19T11:24:00.311Z,37.4
2022-08-19T11:25:00.294Z,37.4
2022-08-19T11:26:00.377Z,37.4
2022-08-19T11:27:00.423Z,37.4
2022-08-19T11:28:00.282Z,37.4
2022-08-19T11:29:00.291Z,37.4
2022-08-19T11:30:00.309Z,37.4
2022-08-19T11:31:00.395Z,37.4
2022-08-19T11:32:00.313Z,37.4
2022-08-19T11:33:00.305Z,37.4
2022-08-19T11:34:00.345Z,37.5
2022-08-19T11:35:00.314Z,37.5
2022-08-19T11:36:00.340Z,37.5
2022-08-19T11:37:00.412Z,37.4
2022-08-19T11:38:00.301Z,37.3
2022-08-19T11:39:00.281Z,37.3
2022-08-19T11:40:00.462Z,37.3
2022-08-19T11:41:00.304Z,37.3
2022-08-19T11:42:00.640Z,37.3
2022-08-19T11:43:00.371Z,37.4
2022-08-19T11:44:00.326Z,37.3
2022-08-19T11:45:00.319Z,37.3
2022-08-19T11:46:00.324Z,37.3
2022-08-19T11:47:00.356Z,37.4
2022-08-19T11:48:00.330Z,37.4
2022-08-19T11:49:00.423Z,37.5
2022-08-19T11:50:00.321Z,37.5
2022-08-19T11:51:00.313Z,37.6
2022-08-19T11:52:00.287Z,37.6
2022-08-19T11:53:00.366Z,37.5
2022-08-19T11:54:00.325Z,37.6
2022-08-19T11:55:00.483Z,37.6
2022-08-19T11:56:00.413Z,37.5
2022-08-19T11:57:00.452Z,37.4
2022-08-19T11:58:00.318Z,37.5
2022-08-19T11:59:00.333Z,37.4
2022-08-19T12:00:00.757Z,37.4
2022-08-19T12:01:00.450Z,37.4
2022-08-19T12:02:00.458Z,37.5
2022-08-19T12:03:00.615Z,37.5
2022-08-19T12:04:00.549Z,37.5
2022-08-19T12:05:00.536Z,37.5
2022-08-19T12:06:00.603Z,37.6
2022-08-19T12:07:00.462Z,37.7
2022-08-19T12:08:00.569Z,37.8
2022-08-19T12:09:00.407Z,38.0
2022-08-19T12:10:00.455Z,38.1
2022-08-19T12:11:00.673Z,38.2
2022-08-19T12:12:00.449Z,38.3
2022-08-19T12:13:00.340Z,38.4
2022-08-19T12:14:00.544Z,38.5
2022-08-19T12:15:00.505Z,38.6
2022-08-19T12:16:00.373Z,38.6
2022-08-19T12:17:00.395Z,38.6
2022-08-19T12:18:00.324Z,38.5
2022-08-19T12:19:00.295Z,38.4
2022-08-19T12:20:00.408Z,38.4
2022-08-19T12:21:00.326Z,38.3
2022-08-19T12:22:00.312Z,38.1
2022-08-19T12:23:00.298Z,38.0
2022-08-19T12:24:00.309Z,37.9
2022-08-19T12:25:00.323Z,37.8
2022-08-19T12:26:00.404Z,37.7
2022-08-19T12:27:02.926Z,37.7
2022-08-19T12:28:00.598Z,37.8
2022-08-19T12:29:00.331Z,37.9
2022-08-19T12:30:00.393Z,37.9
2022-08-19T12:31:00.441Z,37.9
2022-08-19T12:32:00.385Z,37.9
2022-08-19T12:33:00.301Z,37.9
2022-08-19T12:34:00.415Z,38.0
2022-08-19T12:35:00.316Z,38.0
2022-08-19T12:36:00.300Z,38.1
2022-08-19T12:37:00.320Z,38.1
2022-08-19T12:38:00.599Z,38.1
2022-08-19T12:39:00.346Z,38.1
2022-08-19T12:40:00.630Z,38.0
2022-08-19T12:41:00.552Z,38.0
2022-08-19T12:42:00.438Z,38.1
2022-08-19T12:43:00.299Z,38.1
2022-08-19T12:44:00.314Z,38.2
2022-08-19T12:45:00.340Z,38.2
2022-08-19T12:46:00.644Z,38.2
2022-08-19T12:47:00.821Z,38.1
2022-08-19T12:48:00.321Z,38.1
2022-08-19T12:49:00.320Z,38.1
2022-08-19T12:50:01.384Z,38.2
2022-08-19T12:51:00.422Z,38.2
2022-08-19T12:52:00.557Z,38.3
2022-08-19T12:53:00.328Z,38.3
2022-08-19T12:54:00.302Z,38.3
2022-08-19T12:55:00.287Z,38.3
2022-08-19T12:56:00.345Z,38.3
2022-08-19T12:57:00.420Z,38.4
2022-08-19T12:58:00.301Z,38.4
2022-08-19T12:59:00.324Z,38.4
2022-08-19T13:00:00.440Z,38.4
2022-08-19T13:01:00.473Z,38.3
2022-08-19T13:02:00.344Z,38.2
2022-08-19T13:03:00.320Z,38.2
2022-08-19T13:04:00.316Z,38.2
2022-08-19T13:05:00.315Z,38.3
2022-08-19T13:06:00.363Z,38.2
2022-08-19T13:07:00.299Z,38.1
2022-08-19T13:08:00.308Z,38.0
2022-08-19T13:09:00.306Z,38.0
2022-08-19T13:10:00.289Z,38.0
2022-08-19T13:11:00.324Z,37.9
2022-08-19T13:12:00.543Z,37.9
2022-08-19T13:13:00.305Z,37.8
2022-08-19T13:14:00.318Z,37.8
2022-08-19T13:15:00.389Z,37.7
2022-08-19T13:16:00.307Z,37.6
2022-08-19T13:17:00.292Z,37.7
2022-08-19T13:18:00.425Z,37.7
2022-08-19T13:19:00.310Z,37.6
2022-08-19T13:20:00.400Z,37.6